sensor_id;sensor_type;location;lat;lon;timestamp;P1;durP1;ratioP1;P2;durP2;ratioP2
10890;SDS011;5498;50.928;11.598;2022-09-17T00:00:12;7.00;;;1.20;;
10890;SDS011;5498;50.928;11.598;2022-09-17T00:03:15;2.87;;;0.90;;
10890;SDS011;5498;50.928;11.598;2022-09-17T00:06:18;1.67;;;1.10;;
10890;SDS011;5498;50.928;11.598;2022-09-17T00:09:20;3.00;;;0.90;;
10890;SDS011;5498;50.928;11.598;2022-09-17T00:12:22;3.30;;;1.00;;
10890;SDS011;5498;50.928;11.598;2022-09-17T00:15:24;5.27;;;1.33;;
10890;SDS011;5498;50.928;11.598;2022-09-17T00:18:27;2.50;;;0.97;;
10890;SDS011;5498;50.928;11.598;2022-09-17T00:21:29;5.77;;;0.93;;
10890;SDS011;5498;50.928;11.598;2022-09-17T00:24:32;3.47;;;1.47;;
10890;SDS011;5498;50.928;11.598;2022-09-17T00:27:34;5.90;;;0.87;;
10890;SDS011;5498;50.928;11.598;2022-09-17T00:30:37;5.60;;;1.20;;
10890;SDS011;5498;50.928;11.598;2022-09-17T00:33:42;2.27;;;1.53;;
10890;SDS011;5498;50.928;11.598;2022-09-17T00:36:44;3.63;;;1.30;;
10890;SDS011;5498;50.928;11.598;2022-09-17T00:39:45;2.83;;;1.10;;
10890;SDS011;5498;50.928;11.598;2022-09-17T00:42:47;5.93;;;1.43;;
10890;SDS011;5498;50.928;11.598;2022-09-17T00:45:57;2.80;;;0.83;;
10890;SDS011;5498;50.928;11.598;2022-09-17T00:49:02;3.17;;;1.00;;
10890;SDS011;5498;50.928;11.598;2022-09-17T00:52:08;6.33;;;1.30;;
10890;SDS011;5498;50.928;11.598;2022-09-17T00:55:15;3.43;;;0.90;;
10890;SDS011;5498;50.928;11.598;2022-09-17T00:58:22;6.37;;;1.03;;
10890;SDS011;5498;50.928;11.598;2022-09-17T01:01:26;4.47;;;1.40;;
10890;SDS011;5498;50.928;11.598;2022-09-17T01:04:30;4.87;;;1.10;;
10890;SDS011;5498;50.928;11.598;2022-09-17T01:07:36;5.50;;;1.63;;
10890;SDS011;5498;50.928;11.598;2022-09-17T01:11:11;2.03;;;0.87;;
10890;SDS011;5498;50.928;11.598;2022-09-17T01:14:36;3.00;;;1.10;;
10890;SDS011;5498;50.928;11.598;2022-09-17T01:17:51;3.37;;;1.20;;
10890;SDS011;5498;50.928;11.598;2022-09-17T01:25:06;3.90;;;1.30;;
10890;SDS011;5498;50.928;11.598;2022-09-17T01:28:29;2.60;;;1.00;;
10890;SDS011;5498;50.928;11.598;2022-09-17T01:31:41;14.20;;;1.73;;
10890;SDS011;5498;50.928;11.598;2022-09-17T01:34:52;2.03;;;1.10;;
10890;SDS011;5498;50.928;11.598;2022-09-17T01:38:02;3.77;;;1.43;;
10890;SDS011;5498;50.928;11.598;2022-09-17T01:41:11;3.20;;;1.33;;
10890;SDS011;5498;50.928;11.598;2022-09-17T01:44:25;1.43;;;1.30;;
10890;SDS011;5498;50.928;11.598;2022-09-17T01:47:34;6.73;;;1.40;;
10890;SDS011;5498;50.928;11.598;2022-09-17T01:50:40;3.47;;;1.10;;
10890;SDS011;5498;50.928;11.598;2022-09-17T01:53:51;3.87;;;1.23;;
10890;SDS011;5498;50.928;11.598;2022-09-17T01:56:57;4.13;;;1.23;;
10890;SDS011;5498;50.928;11.598;2022-09-17T02:00:05;8.57;;;1.33;;
10890;SDS011;5498;50.928;11.598;2022-09-17T02:03:13;3.87;;;1.30;;
10890;SDS011;5498;50.928;11.598;2022-09-17T02:06:20;2.33;;;1.03;;
10890;SDS011;5498;50.928;11.598;2022-09-17T02:09:29;1.23;;;1.10;;
10890;SDS011;5498;50.928;11.598;2022-09-17T02:12:36;3.50;;;1.37;;
10890;SDS011;5498;50.928;11.598;2022-09-17T02:15:42;3.03;;;1.47;;
10890;SDS011;5498;50.928;11.598;2022-09-17T02:18:54;4.87;;;1.10;;
10890;SDS011;5498;50.928;11.598;2022-09-17T02:21:59;3.90;;;1.17;;
10890;SDS011;5498;50.928;11.598;2022-09-17T02:25:09;2.57;;;1.33;;
10890;SDS011;5498;50.928;11.598;2022-09-17T02:28:19;1.50;;;1.23;;
10890;SDS011;5498;50.928;11.598;2022-09-17T02:31:27;2.57;;;1.10;;
10890;SDS011;5498;50.928;11.598;2022-09-17T02:34:31;0.83;;;0.73;;
10890;SDS011;5498;50.928;11.598;2022-09-17T02:37:33;1.17;;;1.07;;
10890;SDS011;5498;50.928;11.598;2022-09-17T02:40:37;2.03;;;1.83;;
10890;SDS011;5498;50.928;11.598;2022-09-17T02:43:49;1.57;;;1.17;;
10890;SDS011;5498;50.928;11.598;2022-09-17T02:47:07;2.03;;;1.10;;
10890;SDS011;5498;50.928;11.598;2022-09-17T02:50:37;3.43;;;1.10;;
10890;SDS011;5498;50.928;11.598;2022-09-17T02:54:02;2.13;;;1.10;;
10890;SDS011;5498;50.928;11.598;2022-09-17T02:57:18;0.80;;;0.80;;
10890;SDS011;5498;50.928;11.598;2022-09-17T03:00:24;0.87;;;0.87;;
10890;SDS011;5498;50.928;11.598;2022-09-17T03:03:28;1.27;;;0.80;;
10890;SDS011;5498;50.928;11.598;2022-09-17T03:06:35;3.77;;;1.00;;
10890;SDS011;5498;50.928;11.598;2022-09-17T03:09:38;0.87;;;0.87;;
10890;SDS011;5498;50.928;11.598;2022-09-17T03:12:42;0.80;;;0.80;;
10890;SDS011;5498;50.928;11.598;2022-09-17T03:15:44;0.60;;;0.60;;
10890;SDS011;5498;50.928;11.598;2022-09-17T03:18:46;1.50;;;0.97;;
10890;SDS011;5498;50.928;11.598;2022-09-17T03:21:49;1.03;;;0.73;;
10890;SDS011;5498;50.928;11.598;2022-09-17T03:24:51;3.23;;;1.17;;
10890;SDS011;5498;50.928;11.598;2022-09-17T03:27:53;0.53;;;0.53;;
10890;SDS011;5498;50.928;11.598;2022-09-17T03:30:54;0.60;;;0.60;;
10890;SDS011;5498;50.928;11.598;2022-09-17T03:33:58;2.63;;;0.97;;
10890;SDS011;5498;50.928;11.598;2022-09-17T03:37:02;1.57;;;0.70;;
10890;SDS011;5498;50.928;11.598;2022-09-17T03:40:04;1.00;;;0.90;;
10890;SDS011;5498;50.928;11.598;2022-09-17T03:43:08;1.77;;;0.83;;
10890;SDS011;5498;50.928;11.598;2022-09-17T03:46:10;0.80;;;0.80;;
10890;SDS011;5498;50.928;11.598;2022-09-17T03:49:11;3.07;;;0.87;;
10890;SDS011;5498;50.928;11.598;2022-09-17T03:52:15;0.60;;;0.60;;
10890;SDS011;5498;50.928;11.598;2022-09-17T03:55:16;2.20;;;0.77;;
10890;SDS011;5498;50.928;11.598;2022-09-17T03:58:18;2.60;;;0.80;;
10890;SDS011;5498;50.928;11.598;2022-09-17T04:01:20;2.70;;;0.93;;
10890;SDS011;5498;50.928;11.598;2022-09-17T04:04:22;0.70;;;0.70;;
10890;SDS011;5498;50.928;11.598;2022-09-17T04:07:26;0.60;;;0.60;;
10890;SDS011;5498;50.928;11.598;2022-09-17T04:10:27;1.83;;;0.90;;
10890;SDS011;5498;50.928;11.598;2022-09-17T04:13:29;0.90;;;0.90;;
10890;SDS011;5498;50.928;11.598;2022-09-17T04:16:31;1.00;;;0.57;;
10890;SDS011;5498;50.928;11.598;2022-09-17T04:19:33;0.70;;;0.70;;
10890;SDS011;5498;50.928;11.598;2022-09-17T04:22:36;1.87;;;0.80;;
10890;SDS011;5498;50.928;11.598;2022-09-17T04:25:38;3.10;;;0.73;;
10890;SDS011;5498;50.928;11.598;2022-09-17T04:28:40;1.07;;;0.53;;
10890;SDS011;5498;50.928;11.598;2022-09-17T04:31:42;0.57;;;0.57;;
10890;SDS011;5498;50.928;11.598;2022-09-17T04:34:44;2.97;;;0.70;;
10890;SDS011;5498;50.928;11.598;2022-09-17T04:37:52;2.67;;;0.80;;
10890;SDS011;5498;50.928;11.598;2022-09-17T04:40:54;0.67;;;0.50;;
10890;SDS011;5498;50.928;11.598;2022-09-17T04:43:56;1.57;;;0.50;;
10890;SDS011;5498;50.928;11.598;2022-09-17T04:46:58;1.87;;;0.70;;
10890;SDS011;5498;50.928;11.598;2022-09-17T04:50:00;1.77;;;0.60;;
10890;SDS011;5498;50.928;11.598;2022-09-17T04:53:03;0.90;;;0.50;;
10890;SDS011;5498;50.928;11.598;2022-09-17T04:56:05;2.57;;;0.90;;
10890;SDS011;5498;50.928;11.598;2022-09-17T04:59:07;2.37;;;0.67;;
10890;SDS011;5498;50.928;11.598;2022-09-17T05:02:09;0.90;;;0.60;;
10890;SDS011;5498;50.928;11.598;2022-09-17T05:05:11;0.87;;;0.80;;
10890;SDS011;5498;50.928;11.598;2022-09-17T05:08:14;0.60;;;0.60;;
10890;SDS011;5498;50.928;11.598;2022-09-17T05:11:16;3.90;;;1.40;;
10890;SDS011;5498;50.928;11.598;2022-09-17T05:14:18;0.90;;;0.50;;
10890;SDS011;5498;50.928;11.598;2022-09-17T05:17:20;2.33;;;0.97;;
10890;SDS011;5498;50.928;11.598;2022-09-17T05:20:22;3.13;;;0.60;;
10890;SDS011;5498;50.928;11.598;2022-09-17T05:23:25;2.40;;;0.80;;
10890;SDS011;5498;50.928;11.598;2022-09-17T05:26:27;0.73;;;0.57;;
10890;SDS011;5498;50.928;11.598;2022-09-17T05:29:29;2.30;;;0.90;;
10890;SDS011;5498;50.928;11.598;2022-09-17T05:32:31;2.37;;;0.90;;
10890;SDS011;5498;50.928;11.598;2022-09-17T05:35:33;0.60;;;0.60;;
10890;SDS011;5498;50.928;11.598;2022-09-17T05:38:37;4.47;;;0.60;;
10890;SDS011;5498;50.928;11.598;2022-09-17T05:41:39;0.80;;;0.80;;
10890;SDS011;5498;50.928;11.598;2022-09-17T05:44:40;1.87;;;0.70;;
10890;SDS011;5498;50.928;11.598;2022-09-17T05:47:42;3.53;;;0.70;;
10890;SDS011;5498;50.928;11.598;2022-09-17T05:50:44;1.30;;;0.60;;
10890;SDS011;5498;50.928;11.598;2022-09-17T05:53:47;0.70;;;0.60;;
10890;SDS011;5498;50.928;11.598;2022-09-17T05:56:51;4.47;;;0.80;;
10890;SDS011;5498;50.928;11.598;2022-09-17T05:59:53;3.73;;;0.83;;
10890;SDS011;5498;50.928;11.598;2022-09-17T06:02:55;4.57;;;1.13;;
10890;SDS011;5498;50.928;11.598;2022-09-17T06:05:58;1.70;;;0.97;;
10890;SDS011;5498;50.928;11.598;2022-09-17T06:09:02;3.70;;;0.80;;
10890;SDS011;5498;50.928;11.598;2022-09-17T06:12:04;1.07;;;0.70;;
10890;SDS011;5498;50.928;11.598;2022-09-17T06:15:07;3.17;;;0.93;;
10890;SDS011;5498;50.928;11.598;2022-09-17T06:18:13;2.47;;;0.87;;
10890;SDS011;5498;50.928;11.598;2022-09-17T06:21:15;3.57;;;0.90;;
10890;SDS011;5498;50.928;11.598;2022-09-17T06:24:19;3.97;;;0.80;;
10890;SDS011;5498;50.928;11.598;2022-09-17T06:27:20;5.00;;;1.10;;
10890;SDS011;5498;50.928;11.598;2022-09-17T06:30:22;3.77;;;0.90;;
10890;SDS011;5498;50.928;11.598;2022-09-17T06:33:24;1.30;;;0.77;;
10890;SDS011;5498;50.928;11.598;2022-09-17T06:36:26;3.57;;;0.80;;
10890;SDS011;5498;50.928;11.598;2022-09-17T06:39:30;1.67;;;0.90;;
10890;SDS011;5498;50.928;11.598;2022-09-17T06:42:32;3.13;;;0.70;;
10890;SDS011;5498;50.928;11.598;2022-09-17T06:45:33;1.67;;;0.97;;
10890;SDS011;5498;50.928;11.598;2022-09-17T06:48:36;3.97;;;0.97;;
10890;SDS011;5498;50.928;11.598;2022-09-17T06:51:38;3.60;;;1.00;;
10890;SDS011;5498;50.928;11.598;2022-09-17T06:54:41;5.63;;;1.00;;
10890;SDS011;5498;50.928;11.598;2022-09-17T06:57:43;4.00;;;0.90;;
10890;SDS011;5498;50.928;11.598;2022-09-17T07:00:45;2.93;;;1.17;;
10890;SDS011;5498;50.928;11.598;2022-09-17T07:03:47;1.40;;;1.27;;
10890;SDS011;5498;50.928;11.598;2022-09-17T07:06:49;2.00;;;0.93;;
10890;SDS011;5498;50.928;11.598;2022-09-17T07:09:53;1.60;;;0.90;;
10890;SDS011;5498;50.928;11.598;2022-09-17T07:12:55;4.50;;;1.10;;
10890;SDS011;5498;50.928;11.598;2022-09-17T07:15:59;2.40;;;0.87;;
10890;SDS011;5498;50.928;11.598;2022-09-17T07:19:02;4.70;;;2.80;;
10890;SDS011;5498;50.928;11.598;2022-09-17T07:22:05;2.03;;;0.80;;
10890;SDS011;5498;50.928;11.598;2022-09-17T07:25:08;1.83;;;1.10;;
10890;SDS011;5498;50.928;11.598;2022-09-17T07:28:10;2.20;;;1.10;;
10890;SDS011;5498;50.928;11.598;2022-09-17T07:31:12;4.03;;;1.20;;
10890;SDS011;5498;50.928;11.598;2022-09-17T07:34:15;4.80;;;1.30;;
10890;SDS011;5498;50.928;11.598;2022-09-17T07:37:17;3.60;;;1.20;;
10890;SDS011;5498;50.928;11.598;2022-09-17T07:40:21;1.90;;;0.90;;
10890;SDS011;5498;50.928;11.598;2022-09-17T07:43:23;5.40;;;1.43;;
10890;SDS011;5498;50.928;11.598;2022-09-17T07:46:26;6.60;;;1.57;;
10890;SDS011;5498;50.928;11.598;2022-09-17T07:49:28;6.47;;;1.17;;
10890;SDS011;5498;50.928;11.598;2022-09-17T07:52:30;5.60;;;1.37;;
10890;SDS011;5498;50.928;11.598;2022-09-17T07:55:33;3.90;;;1.23;;
10890;SDS011;5498;50.928;11.598;2022-09-17T07:58:35;7.90;;;1.90;;
10890;SDS011;5498;50.928;11.598;2022-09-17T08:01:38;10.20;;;1.60;;
10890;SDS011;5498;50.928;11.598;2022-09-17T08:04:40;7.03;;;1.67;;
10890;SDS011;5498;50.928;11.598;2022-09-17T08:07:43;6.37;;;1.57;;
10890;SDS011;5498;50.928;11.598;2022-09-17T08:10:46;6.50;;;1.43;;
10890;SDS011;5498;50.928;11.598;2022-09-17T08:13:48;7.70;;;1.60;;
10890;SDS011;5498;50.928;11.598;2022-09-17T08:16:52;4.47;;;1.33;;
10890;SDS011;5498;50.928;11.598;2022-09-17T08:19:54;9.63;;;1.40;;
10890;SDS011;5498;50.928;11.598;2022-09-17T08:22:57;14.57;;;1.70;;
10890;SDS011;5498;50.928;11.598;2022-09-17T08:26:01;7.37;;;1.87;;
10890;SDS011;5498;50.928;11.598;2022-09-17T08:29:07;7.57;;;1.27;;
10890;SDS011;5498;50.928;11.598;2022-09-17T08:32:11;8.37;;;1.40;;
10890;SDS011;5498;50.928;11.598;2022-09-17T08:35:13;6.60;;;1.57;;
10890;SDS011;5498;50.928;11.598;2022-09-17T08:38:15;7.10;;;1.53;;
10890;SDS011;5498;50.928;11.598;2022-09-17T08:41:22;11.00;;;1.63;;
10890;SDS011;5498;50.928;11.598;2022-09-17T08:44:29;8.10;;;2.30;;
10890;SDS011;5498;50.928;11.598;2022-09-17T08:47:40;7.17;;;1.47;;
10890;SDS011;5498;50.928;11.598;2022-09-17T08:50:44;5.47;;;1.40;;
10890;SDS011;5498;50.928;11.598;2022-09-17T08:53:48;10.40;;;2.00;;
10890;SDS011;5498;50.928;11.598;2022-09-17T08:57:06;6.63;;;1.80;;
10890;SDS011;5498;50.928;11.598;2022-09-17T09:00:23;11.53;;;2.43;;
10890;SDS011;5498;50.928;11.598;2022-09-17T09:03:28;9.50;;;1.67;;
10890;SDS011;5498;50.928;11.598;2022-09-17T09:06:41;10.50;;;1.77;;
10890;SDS011;5498;50.928;11.598;2022-09-17T09:09:48;7.73;;;1.90;;
10890;SDS011;5498;50.928;11.598;2022-09-17T09:13:08;8.70;;;1.50;;
10890;SDS011;5498;50.928;11.598;2022-09-17T09:16:13;5.50;;;1.87;;
10890;SDS011;5498;50.928;11.598;2022-09-17T09:19:20;8.60;;;1.67;;
10890;SDS011;5498;50.928;11.598;2022-09-17T09:22:30;8.03;;;1.37;;
10890;SDS011;5498;50.928;11.598;2022-09-17T09:25:53;8.80;;;1.23;;
10890;SDS011;5498;50.928;11.598;2022-09-17T09:29:07;4.70;;;2.07;;
10890;SDS011;5498;50.928;11.598;2022-09-17T09:32:20;9.47;;;2.20;;
10890;SDS011;5498;50.928;11.598;2022-09-17T09:35:48;5.10;;;2.03;;
10890;SDS011;5498;50.928;11.598;2022-09-17T09:38:51;7.50;;;2.27;;
10890;SDS011;5498;50.928;11.598;2022-09-17T09:42:03;9.90;;;2.30;;
10890;SDS011;5498;50.928;11.598;2022-09-17T09:45:13;6.73;;;1.97;;
10890;SDS011;5498;50.928;11.598;2022-09-17T09:48:22;15.40;;;2.13;;
10890;SDS011;5498;50.928;11.598;2022-09-17T09:51:41;12.73;;;2.10;;
10890;SDS011;5498;50.928;11.598;2022-09-17T09:54:59;7.90;;;2.00;;
10890;SDS011;5498;50.928;11.598;2022-09-17T09:58:20;11.43;;;3.37;;
10890;SDS011;5498;50.928;11.598;2022-09-17T10:01:30;11.67;;;2.40;;
10890;SDS011;5498;50.928;11.598;2022-09-17T10:04:34;11.47;;;3.23;;
10890;SDS011;5498;50.928;11.598;2022-09-17T10:07:41;4.10;;;2.03;;
10890;SDS011;5498;50.928;11.598;2022-09-17T10:10:53;10.23;;;2.37;;
10890;SDS011;5498;50.928;11.598;2022-09-17T10:14:05;8.10;;;1.83;;
10890;SDS011;5498;50.928;11.598;2022-09-17T10:17:21;9.50;;;2.17;;
10890;SDS011;5498;50.928;11.598;2022-09-17T10:20:25;11.30;;;2.47;;
10890;SDS011;5498;50.928;11.598;2022-09-17T10:23:27;8.93;;;1.63;;
10890;SDS011;5498;50.928;11.598;2022-09-17T10:26:34;8.23;;;2.67;;
10890;SDS011;5498;50.928;11.598;2022-09-17T10:29:40;7.97;;;1.63;;
10890;SDS011;5498;50.928;11.598;2022-09-17T10:32:50;10.90;;;2.30;;
10890;SDS011;5498;50.928;11.598;2022-09-17T10:36:17;12.47;;;3.07;;
10890;SDS011;5498;50.928;11.598;2022-09-17T10:39:40;7.97;;;1.50;;
10890;SDS011;5498;50.928;11.598;2022-09-17T10:42:44;16.23;;;2.27;;
10890;SDS011;5498;50.928;11.598;2022-09-17T10:45:53;7.23;;;2.33;;
10890;SDS011;5498;50.928;11.598;2022-09-17T10:49:06;7.57;;;2.70;;
10890;SDS011;5498;50.928;11.598;2022-09-17T10:52:18;9.80;;;2.70;;
10890;SDS011;5498;50.928;11.598;2022-09-17T10:55:26;5.53;;;1.63;;
10890;SDS011;5498;50.928;11.598;2022-09-17T10:58:34;6.90;;;1.47;;
10890;SDS011;5498;50.928;11.598;2022-09-17T11:01:53;2.70;;;1.20;;
10890;SDS011;5498;50.928;11.598;2022-09-17T11:05:10;4.20;;;1.43;;
10890;SDS011;5498;50.928;11.598;2022-09-17T11:08:31;3.70;;;1.40;;
10890;SDS011;5498;50.928;11.598;2022-09-17T11:11:41;10.70;;;1.57;;
10890;SDS011;5498;50.928;11.598;2022-09-17T11:14:58;3.37;;;1.57;;
10890;SDS011;5498;50.928;11.598;2022-09-17T11:18:13;9.60;;;2.50;;
10890;SDS011;5498;50.928;11.598;2022-09-17T11:21:44;8.33;;;1.97;;
10890;SDS011;5498;50.928;11.598;2022-09-17T11:28:35;9.70;;;1.90;;
10890;SDS011;5498;50.928;11.598;2022-09-17T11:31:49;7.67;;;1.80;;
10890;SDS011;5498;50.928;11.598;2022-09-17T11:34:59;5.83;;;2.00;;
10890;SDS011;5498;50.928;11.598;2022-09-17T11:38:07;7.03;;;1.67;;
10890;SDS011;5498;50.928;11.598;2022-09-17T11:41:18;4.50;;;1.30;;
10890;SDS011;5498;50.928;11.598;2022-09-17T11:44:24;6.13;;;1.83;;
10890;SDS011;5498;50.928;11.598;2022-09-17T11:47:32;7.13;;;1.37;;
10890;SDS011;5498;50.928;11.598;2022-09-17T11:50:36;5.17;;;1.43;;
10890;SDS011;5498;50.928;11.598;2022-09-17T11:53:45;3.07;;;1.37;;
10890;SDS011;5498;50.928;11.598;2022-09-17T11:56:52;6.60;;;1.40;;
10890;SDS011;5498;50.928;11.598;2022-09-17T12:00:00;6.67;;;1.20;;
10890;SDS011;5498;50.928;11.598;2022-09-17T12:03:08;4.20;;;1.87;;
10890;SDS011;5498;50.928;11.598;2022-09-17T12:06:19;3.70;;;1.30;;
10890;SDS011;5498;50.928;11.598;2022-09-17T12:09:31;5.57;;;1.30;;
10890;SDS011;5498;50.928;11.598;2022-09-17T12:12:36;3.00;;;1.07;;
10890;SDS011;5498;50.928;11.598;2022-09-17T12:15:44;7.37;;;1.10;;
10890;SDS011;5498;50.928;11.598;2022-09-17T12:18:55;8.07;;;1.37;;
10890;SDS011;5498;50.928;11.598;2022-09-17T12:22:03;4.30;;;1.53;;
10890;SDS011;5498;50.928;11.598;2022-09-17T12:25:11;5.33;;;1.30;;
10890;SDS011;5498;50.928;11.598;2022-09-17T12:28:14;5.47;;;1.40;;
10890;SDS011;5498;50.928;11.598;2022-09-17T12:31:22;4.23;;;1.27;;
10890;SDS011;5498;50.928;11.598;2022-09-17T12:34:35;4.57;;;1.87;;
10890;SDS011;5498;50.928;11.598;2022-09-17T12:37:46;3.67;;;1.30;;
10890;SDS011;5498;50.928;11.598;2022-09-17T12:41:07;6.93;;;1.27;;
10890;SDS011;5498;50.928;11.598;2022-09-17T12:44:24;8.03;;;2.10;;
10890;SDS011;5498;50.928;11.598;2022-09-17T12:48:21;8.40;;;1.00;;
10890;SDS011;5498;50.928;11.598;2022-09-17T12:51:44;5.43;;;1.40;;
10890;SDS011;5498;50.928;11.598;2022-09-17T12:55:02;8.00;;;2.23;;
10890;SDS011;5498;50.928;11.598;2022-09-17T12:58:30;2.30;;;1.20;;
10890;SDS011;5498;50.928;11.598;2022-09-17T13:02:01;3.70;;;1.23;;
10890;SDS011;5498;50.928;11.598;2022-09-17T13:05:20;5.03;;;1.80;;
10890;SDS011;5498;50.928;11.598;2022-09-17T13:09:25;4.03;;;1.30;;
10890;SDS011;5498;50.928;11.598;2022-09-17T13:13:00;10.03;;;1.77;;
10890;SDS011;5498;50.928;11.598;2022-09-17T13:16:13;7.47;;;1.30;;
10890;SDS011;5498;50.928;11.598;2022-09-17T13:19:24;4.33;;;1.53;;
10890;SDS011;5498;50.928;11.598;2022-09-17T13:22:41;7.13;;;1.20;;
10890;SDS011;5498;50.928;11.598;2022-09-17T13:25:49;7.70;;;1.40;;
10890;SDS011;5498;50.928;11.598;2022-09-17T13:28:52;5.23;;;1.10;;
10890;SDS011;5498;50.928;11.598;2022-09-17T13:31:55;7.67;;;1.40;;
10890;SDS011;5498;50.928;11.598;2022-09-17T13:35:02;5.50;;;1.47;;
10890;SDS011;5498;50.928;11.598;2022-09-17T13:38:39;7.43;;;1.47;;
10890;SDS011;5498;50.928;11.598;2022-09-17T13:41:42;6.10;;;1.20;;
10890;SDS011;5498;50.928;11.598;2022-09-17T13:44:45;5.17;;;0.97;;
10890;SDS011;5498;50.928;11.598;2022-09-17T13:47:52;2.00;;;0.80;;
10890;SDS011;5498;50.928;11.598;2022-09-17T13:50:57;1.30;;;0.60;;
10890;SDS011;5498;50.928;11.598;2022-09-17T13:54:58;1.70;;;0.60;;
10890;SDS011;5498;50.928;11.598;2022-09-17T13:58:02;0.80;;;0.70;;
10890;SDS011;5498;50.928;11.598;2022-09-17T14:01:09;1.60;;;0.80;;
10890;SDS011;5498;50.928;11.598;2022-09-17T14:07:50;3.43;;;0.93;;
10890;SDS011;5498;50.928;11.598;2022-09-17T14:14:45;1.87;;;1.03;;
10890;SDS011;5498;50.928;11.598;2022-09-17T14:17:51;4.37;;;1.07;;
10890;SDS011;5498;50.928;11.598;2022-09-17T14:21:03;2.20;;;0.70;;
10890;SDS011;5498;50.928;11.598;2022-09-17T14:24:18;1.40;;;0.80;;
10890;SDS011;5498;50.928;11.598;2022-09-17T14:27:32;1.40;;;0.63;;
10890;SDS011;5498;50.928;11.598;2022-09-17T14:30:49;1.30;;;0.90;;
10890;SDS011;5498;50.928;11.598;2022-09-17T14:33:52;4.60;;;1.10;;
10890;SDS011;5498;50.928;11.598;2022-09-17T14:36:56;3.53;;;0.83;;
10890;SDS011;5498;50.928;11.598;2022-09-17T14:40:00;2.20;;;0.93;;
10890;SDS011;5498;50.928;11.598;2022-09-17T14:43:09;3.27;;;0.90;;
10890;SDS011;5498;50.928;11.598;2022-09-17T14:46:20;5.40;;;0.80;;
10890;SDS011;5498;50.928;11.598;2022-09-17T14:49:25;2.47;;;1.00;;
10890;SDS011;5498;50.928;11.598;2022-09-17T14:52:31;2.43;;;1.17;;
10890;SDS011;5498;50.928;11.598;2022-09-17T14:55:33;6.53;;;1.53;;
10890;SDS011;5498;50.928;11.598;2022-09-17T14:58:42;3.97;;;1.10;;
10890;SDS011;5498;50.928;11.598;2022-09-17T15:01:48;5.10;;;0.80;;
10890;SDS011;5498;50.928;11.598;2022-09-17T15:04:57;4.63;;;1.40;;
10890;SDS011;5498;50.928;11.598;2022-09-17T15:08:11;6.30;;;1.40;;
10890;SDS011;5498;50.928;11.598;2022-09-17T15:11:21;1.47;;;1.07;;
10890;SDS011;5498;50.928;11.598;2022-09-17T15:14:25;2.90;;;1.20;;
10890;SDS011;5498;50.928;11.598;2022-09-17T15:17:30;6.67;;;1.07;;
10890;SDS011;5498;50.928;11.598;2022-09-17T15:20:33;1.57;;;1.00;;
10890;SDS011;5498;50.928;11.598;2022-09-17T15:23:36;0.63;;;0.63;;
10890;SDS011;5498;50.928;11.598;2022-09-17T15:26:39;2.57;;;0.83;;
10890;SDS011;5498;50.928;11.598;2022-09-17T15:29:43;3.90;;;0.70;;
10890;SDS011;5498;50.928;11.598;2022-09-17T15:32:50;2.70;;;0.90;;
10890;SDS011;5498;50.928;11.598;2022-09-17T15:35:58;6.27;;;1.10;;
10890;SDS011;5498;50.928;11.598;2022-09-17T15:39:28;1.60;;;0.70;;
10890;SDS011;5498;50.928;11.598;2022-09-17T15:42:32;3.53;;;1.23;;
10890;SDS011;5498;50.928;11.598;2022-09-17T15:45:33;1.57;;;0.90;;
10890;SDS011;5498;50.928;11.598;2022-09-17T15:48:38;0.80;;;0.80;;
10890;SDS011;5498;50.928;11.598;2022-09-17T15:51:40;1.37;;;0.60;;
10890;SDS011;5498;50.928;11.598;2022-09-17T15:54:43;0.97;;;0.87;;
10890;SDS011;5498;50.928;11.598;2022-09-17T15:57:45;0.63;;;0.60;;
10890;SDS011;5498;50.928;11.598;2022-09-17T16:00:48;1.43;;;0.63;;
10890;SDS011;5498;50.928;11.598;2022-09-17T16:04:39;1.50;;;1.07;;
10890;SDS011;5498;50.928;11.598;2022-09-17T16:07:41;2.80;;;0.80;;
10890;SDS011;5498;50.928;11.598;2022-09-17T16:10:46;2.00;;;0.83;;
10890;SDS011;5498;50.928;11.598;2022-09-17T16:13:48;1.37;;;0.60;;
10890;SDS011;5498;50.928;11.598;2022-09-17T16:16:52;1.70;;;1.00;;
10890;SDS011;5498;50.928;11.598;2022-09-17T16:19:55;0.87;;;0.80;;
10890;SDS011;5498;50.928;11.598;2022-09-17T16:22:57;1.70;;;0.57;;
10890;SDS011;5498;50.928;11.598;2022-09-17T16:26:00;2.10;;;0.80;;
10890;SDS011;5498;50.928;11.598;2022-09-17T16:29:03;4.27;;;1.67;;
10890;SDS011;5498;50.928;11.598;2022-09-17T16:32:12;3.83;;;1.27;;
10890;SDS011;5498;50.928;11.598;2022-09-17T16:35:14;0.43;;;0.43;;
10890;SDS011;5498;50.928;11.598;2022-09-17T16:38:18;2.13;;;1.27;;
10890;SDS011;5498;50.928;11.598;2022-09-17T16:41:22;2.73;;;1.20;;
10890;SDS011;5498;50.928;11.598;2022-09-17T16:44:23;2.17;;;0.90;;
10890;SDS011;5498;50.928;11.598;2022-09-17T16:47:26;2.97;;;1.83;;
10890;SDS011;5498;50.928;11.598;2022-09-17T16:50:31;8.37;;;1.97;;
10890;SDS011;5498;50.928;11.598;2022-09-17T16:53:33;4.93;;;2.63;;
10890;SDS011;5498;50.928;11.598;2022-09-17T16:56:36;1.50;;;1.13;;
10890;SDS011;5498;50.928;11.598;2022-09-17T16:59:38;5.07;;;1.30;;
10890;SDS011;5498;50.928;11.598;2022-09-17T17:02:40;3.23;;;1.40;;
10890;SDS011;5498;50.928;11.598;2022-09-17T17:05:42;1.93;;;1.30;;
10890;SDS011;5498;50.928;11.598;2022-09-17T17:08:45;2.03;;;1.03;;
10890;SDS011;5498;50.928;11.598;2022-09-17T17:11:48;1.43;;;1.10;;
10890;SDS011;5498;50.928;11.598;2022-09-17T17:14:50;1.70;;;1.00;;
10890;SDS011;5498;50.928;11.598;2022-09-17T17:17:52;0.60;;;0.57;;
10890;SDS011;5498;50.928;11.598;2022-09-17T17:20:54;1.57;;;1.10;;
10890;SDS011;5498;50.928;11.598;2022-09-17T17:23:56;1.33;;;0.60;;
10890;SDS011;5498;50.928;11.598;2022-09-17T17:26:59;0.93;;;0.53;;
10890;SDS011;5498;50.928;11.598;2022-09-17T17:30:03;1.27;;;0.80;;
10890;SDS011;5498;50.928;11.598;2022-09-17T17:33:06;3.60;;;0.63;;
10890;SDS011;5498;50.928;11.598;2022-09-17T17:36:09;2.73;;;1.13;;
10890;SDS011;5498;50.928;11.598;2022-09-17T17:39:11;2.37;;;0.63;;
10890;SDS011;5498;50.928;11.598;2022-09-17T17:42:14;1.27;;;0.77;;
10890;SDS011;5498;50.928;11.598;2022-09-17T17:45:17;1.10;;;0.57;;
10890;SDS011;5498;50.928;11.598;2022-09-17T17:48:19;2.30;;;0.83;;
10890;SDS011;5498;50.928;11.598;2022-09-17T17:51:21;2.10;;;0.70;;
10890;SDS011;5498;50.928;11.598;2022-09-17T17:54:23;1.53;;;0.53;;
10890;SDS011;5498;50.928;11.598;2022-09-17T17:57:28;3.23;;;0.83;;
10890;SDS011;5498;50.928;11.598;2022-09-17T18:00:30;1.63;;;0.80;;
10890;SDS011;5498;50.928;11.598;2022-09-17T18:03:32;1.07;;;0.60;;
10890;SDS011;5498;50.928;11.598;2022-09-17T18:06:34;3.23;;;0.90;;
10890;SDS011;5498;50.928;11.598;2022-09-17T18:09:36;1.40;;;0.87;;
10890;SDS011;5498;50.928;11.598;2022-09-17T18:12:39;1.57;;;0.60;;
10890;SDS011;5498;50.928;11.598;2022-09-17T18:15:49;2.23;;;0.70;;
10890;SDS011;5498;50.928;11.598;2022-09-17T18:18:55;2.73;;;1.10;;
10890;SDS011;5498;50.928;11.598;2022-09-17T18:21:57;3.10;;;1.07;;
10890;SDS011;5498;50.928;11.598;2022-09-17T18:24:59;1.63;;;0.60;;
10890;SDS011;5498;50.928;11.598;2022-09-17T18:28:02;0.43;;;0.37;;
10890;SDS011;5498;50.928;11.598;2022-09-17T18:31:05;2.37;;;0.60;;
10890;SDS011;5498;50.928;11.598;2022-09-17T18:34:08;0.70;;;0.70;;
10890;SDS011;5498;50.928;11.598;2022-09-17T18:37:13;2.10;;;0.80;;
10890;SDS011;5498;50.928;11.598;2022-09-17T18:40:15;2.33;;;0.60;;
10890;SDS011;5498;50.928;11.598;2022-09-17T18:43:18;3.73;;;0.93;;
10890;SDS011;5498;50.928;11.598;2022-09-17T18:46:20;1.27;;;0.60;;
10890;SDS011;5498;50.928;11.598;2022-09-17T18:49:22;1.27;;;0.90;;
10890;SDS011;5498;50.928;11.598;2022-09-17T18:52:24;1.40;;;0.90;;
10890;SDS011;5498;50.928;11.598;2022-09-17T18:55:25;1.40;;;0.70;;
10890;SDS011;5498;50.928;11.598;2022-09-17T18:58:29;2.73;;;0.70;;
10890;SDS011;5498;50.928;11.598;2022-09-17T19:01:31;0.90;;;0.90;;